sensor_id;sensor_type;location;lat;lon;timestamp;P1;durP1;ratioP1;P2;durP2;ratioP2
20928;SDS011;21895;47.072;15.132;2022-07-23T00:00:18;22.87;;;12.88;;
20928;SDS011;21895;47.072;15.132;2022-07-23T00:02:46;17.15;;;12.13;;
20928;SDS011;21895;47.072;15.132;2022-07-23T00:05:13;17.52;;;13.05;;
20928;SDS011;21895;47.072;15.132;2022-07-23T00:07:39;16.12;;;12.85;;
20928;SDS011;21895;47.072;15.132;2022-07-23T00:10:06;14.80;;;11.70;;
20928;SDS011;21895;47.072;15.132;2022-07-23T00:12:34;17.00;;;13.15;;
20928;SDS011;21895;47.072;15.132;2022-07-23T00:15:00;14.87;;;12.52;;
20928;SDS011;21895;47.072;15.132;2022-07-23T00:17:28;17.08;;;12.05;;
20928;SDS011;21895;47.072;15.132;2022-07-23T00:19:54;16.48;;;12.32;;
20928;SDS011;21895;47.072;15.132;2022-07-23T00:22:21;20.00;;;12.90;;
20928;SDS011;21895;47.072;15.132;2022-07-23T00:24:47;15.98;;;12.02;;
20928;SDS011;21895;47.072;15.132;2022-07-23T00:27:35;17.00;;;12.35;;
20928;SDS011;21895;47.072;15.132;2022-07-23T00:30:02;16.60;;;11.80;;
20928;SDS011;21895;47.072;15.132;2022-07-23T00:32:29;23.45;;;12.30;;
20928;SDS011;21895;47.072;15.132;2022-07-23T00:35:21;13.60;;;11.60;;
20928;SDS011;21895;47.072;15.132;2022-07-23T00:37:50;19.02;;;11.65;;
20928;SDS011;21895;47.072;15.132;2022-07-23T00:40:17;13.35;;;11.07;;
20928;SDS011;21895;47.072;15.132;2022-07-23T00:42:44;16.27;;;11.65;;
20928;SDS011;21895;47.072;15.132;2022-07-23T00:45:11;13.95;;;11.10;;
20928;SDS011;21895;47.072;15.132;2022-07-23T00:47:38;18.25;;;11.60;;
20928;SDS011;21895;47.072;15.132;2022-07-23T00:50:05;16.42;;;11.35;;
20928;SDS011;21895;47.072;15.132;2022-07-23T00:52:34;15.95;;;12.32;;
20928;SDS011;21895;47.072;15.132;2022-07-23T00:55:03;19.10;;;11.60;;
20928;SDS011;21895;47.072;15.132;2022-07-23T00:57:31;16.08;;;11.07;;
20928;SDS011;21895;47.072;15.132;2022-07-23T00:59:58;15.68;;;10.68;;
20928;SDS011;21895;47.072;15.132;2022-07-23T01:02:25;19.40;;;11.07;;
20928;SDS011;21895;47.072;15.132;2022-07-23T01:04:53;15.80;;;11.38;;
20928;SDS011;21895;47.072;15.132;2022-07-23T01:07:19;14.07;;;10.50;;
20928;SDS011;21895;47.072;15.132;2022-07-23T01:09:47;13.68;;;11.30;;
20928;SDS011;21895;47.072;15.132;2022-07-23T01:12:16;12.68;;;10.93;;
20928;SDS011;21895;47.072;15.132;2022-07-23T01:14:43;14.10;;;10.95;;
20928;SDS011;21895;47.072;15.132;2022-07-23T01:17:09;13.50;;;11.02;;
20928;SDS011;21895;47.072;15.132;2022-07-23T01:19:36;14.98;;;11.82;;
20928;SDS011;21895;47.072;15.132;2022-07-23T01:22:03;16.08;;;11.48;;
20928;SDS011;21895;47.072;15.132;2022-07-23T01:24:30;12.82;;;11.52;;
20928;SDS011;21895;47.072;15.132;2022-07-23T01:26:56;15.98;;;11.63;;
20928;SDS011;21895;47.072;15.132;2022-07-23T01:29:23;16.87;;;11.75;;
20928;SDS011;21895;47.072;15.132;2022-07-23T01:31:49;14.23;;;11.98;;
20928;SDS011;21895;47.072;15.132;2022-07-23T01:34:16;16.02;;;12.07;;
20928;SDS011;21895;47.072;15.132;2022-07-23T01:36:42;17.12;;;12.05;;
20928;SDS011;21895;47.072;15.132;2022-07-23T01:39:09;15.75;;;12.05;;
20928;SDS011;21895;47.072;15.132;2022-07-23T01:41:36;18.45;;;12.90;;
20928;SDS011;21895;47.072;15.132;2022-07-23T01:44:03;17.70;;;13.10;;
20928;SDS011;21895;47.072;15.132;2022-07-23T01:46:29;17.62;;;12.55;;
20928;SDS011;21895;47.072;15.132;2022-07-23T01:48:56;15.43;;;12.52;;
20928;SDS011;21895;47.072;15.132;2022-07-23T01:51:23;13.60;;;12.15;;
20928;SDS011;21895;47.072;15.132;2022-07-23T01:53:51;16.50;;;12.13;;
20928;SDS011;21895;47.072;15.132;2022-07-23T01:56:18;17.08;;;12.20;;
20928;SDS011;21895;47.072;15.132;2022-07-23T01:58:47;18.20;;;12.80;;
20928;SDS011;21895;47.072;15.132;2022-07-23T02:01:14;21.30;;;12.50;;
20928;SDS011;21895;47.072;15.132;2022-07-23T02:03:41;16.08;;;12.32;;
20928;SDS011;21895;47.072;15.132;2022-07-23T02:06:07;16.77;;;12.30;;
20928;SDS011;21895;47.072;15.132;2022-07-23T02:08:34;15.52;;;12.02;;
20928;SDS011;21895;47.072;15.132;2022-07-23T02:11:00;17.45;;;11.82;;
20928;SDS011;21895;47.072;15.132;2022-07-23T02:13:27;19.10;;;12.07;;
20928;SDS011;21895;47.072;15.132;2022-07-23T02:15:59;14.27;;;11.43;;
20928;SDS011;21895;47.072;15.132;2022-07-23T02:18:26;17.62;;;12.07;;
20928;SDS011;21895;47.072;15.132;2022-07-23T02:20:52;20.02;;;11.82;;
20928;SDS011;21895;47.072;15.132;2022-07-23T02:23:19;13.60;;;11.30;;
20928;SDS011;21895;47.072;15.132;2022-07-23T02:25:46;14.93;;;11.43;;
20928;SDS011;21895;47.072;15.132;2022-07-23T02:28:13;21.02;;;11.70;;
20928;SDS011;21895;47.072;15.132;2022-07-23T02:30:40;17.87;;;12.00;;
20928;SDS011;21895;47.072;15.132;2022-07-23T02:33:06;15.15;;;11.77;;
20928;SDS011;21895;47.072;15.132;2022-07-23T02:35:33;15.38;;;11.23;;
20928;SDS011;21895;47.072;15.132;2022-07-23T02:38:00;18.50;;;12.45;;
20928;SDS011;21895;47.072;15.132;2022-07-23T02:40:26;16.98;;;12.40;;
20928;SDS011;21895;47.072;15.132;2022-07-23T02:42:53;16.17;;;11.75;;
20928;SDS011;21895;47.072;15.132;2022-07-23T02:45:19;15.25;;;11.98;;
20928;SDS011;21895;47.072;15.132;2022-07-23T02:47:46;16.70;;;11.98;;
20928;SDS011;21895;47.072;15.132;2022-07-23T02:50:12;13.77;;;11.60;;
20928;SDS011;21895;47.072;15.132;2022-07-23T02:52:39;19.00;;;12.23;;
20928;SDS011;21895;47.072;15.132;2022-07-23T02:55:06;15.90;;;11.80;;
20928;SDS011;21895;47.072;15.132;2022-07-23T02:57:33;15.55;;;11.73;;
20928;SDS011;21895;47.072;15.132;2022-07-23T02:59:59;15.25;;;12.57;;
20928;SDS011;21895;47.072;15.132;2022-07-23T03:02:26;17.55;;;11.95;;
20928;SDS011;21895;47.072;15.132;2022-07-23T03:04:52;16.30;;;12.05;;
20928;SDS011;21895;47.072;15.132;2022-07-23T03:07:19;17.87;;;12.57;;
20928;SDS011;21895;47.072;15.132;2022-07-23T03:09:46;15.48;;;11.40;;
20928;SDS011;21895;47.072;15.132;2022-07-23T03:12:12;17.20;;;11.82;;
20928;SDS011;21895;47.072;15.132;2022-07-23T03:14:40;18.33;;;12.43;;
20928;SDS011;21895;47.072;15.132;2022-07-23T03:17:07;16.45;;;11.80;;
20928;SDS011;21895;47.072;15.132;2022-07-23T03:19:35;17.15;;;12.25;;
20928;SDS011;21895;47.072;15.132;2022-07-23T03:22:03;16.70;;;12.25;;
20928;SDS011;21895;47.072;15.132;2022-07-23T03:24:30;20.05;;;12.63;;
20928;SDS011;21895;47.072;15.132;2022-07-23T03:27:14;19.08;;;12.45;;
20928;SDS011;21895;47.072;15.132;2022-07-23T03:29:41;16.67;;;12.00;;
20928;SDS011;21895;47.072;15.132;2022-07-23T03:32:07;18.30;;;12.52;;
20928;SDS011;21895;47.072;15.132;2022-07-23T03:34:35;17.62;;;12.02;;
20928;SDS011;21895;47.072;15.132;2022-07-23T03:37:02;16.85;;;12.68;;
20928;SDS011;21895;47.072;15.132;2022-07-23T03:39:31;18.05;;;12.52;;
20928;SDS011;21895;47.072;15.132;2022-07-23T03:41:57;15.70;;;12.35;;
20928;SDS011;21895;47.072;15.132;2022-07-23T03:44:24;18.45;;;11.75;;
20928;SDS011;21895;47.072;15.132;2022-07-23T03:46:51;16.65;;;12.52;;
20928;SDS011;21895;47.072;15.132;2022-07-23T03:49:17;14.63;;;12.05;;
20928;SDS011;21895;47.072;15.132;2022-07-23T03:51:45;17.37;;;12.20;;
20928;SDS011;21895;47.072;15.132;2022-07-23T03:54:12;18.83;;;12.98;;
20928;SDS011;21895;47.072;15.132;2022-07-23T03:56:39;15.77;;;12.18;;
20928;SDS011;21895;47.072;15.132;2022-07-23T03:59:06;17.65;;;13.20;;
20928;SDS011;21895;47.072;15.132;2022-07-23T04:01:32;19.30;;;13.07;;
20928;SDS011;21895;47.072;15.132;2022-07-23T04:03:59;21.12;;;12.10;;
20928;SDS011;21895;47.072;15.132;2022-07-23T04:06:26;17.02;;;12.63;;
20928;SDS011;21895;47.072;15.132;2022-07-23T04:08:53;15.68;;;12.60;;
20928;SDS011;21895;47.072;15.132;2022-07-23T04:11:20;18.23;;;13.90;;
20928;SDS011;21895;47.072;15.132;2022-07-23T04:13:47;18.87;;;13.90;;
20928;SDS011;21895;47.072;15.132;2022-07-23T04:16:13;21.37;;;13.77;;
20928;SDS011;21895;47.072;15.132;2022-07-23T04:18:40;20.15;;;13.82;;
20928;SDS011;21895;47.072;15.132;2022-07-23T04:21:06;20.45;;;13.75;;
20928;SDS011;21895;47.072;15.132;2022-07-23T04:23:33;19.25;;;13.50;;
20928;SDS011;21895;47.072;15.132;2022-07-23T04:25:59;20.37;;;14.13;;
20928;SDS011;21895;47.072;15.132;2022-07-23T04:28:26;17.23;;;12.98;;
20928;SDS011;21895;47.072;15.132;2022-07-23T04:30:53;17.05;;;12.48;;
20928;SDS011;21895;47.072;15.132;2022-07-23T04:33:23;15.40;;;12.55;;
20928;SDS011;21895;47.072;15.132;2022-07-23T04:35:49;15.20;;;12.00;;
20928;SDS011;21895;47.072;15.132;2022-07-23T04:38:16;17.33;;;12.13;;
20928;SDS011;21895;47.072;15.132;2022-07-23T04:40:42;15.90;;;11.40;;
20928;SDS011;21895;47.072;15.132;2022-07-23T04:43:09;16.27;;;11.93;;
20928;SDS011;21895;47.072;15.132;2022-07-23T04:45:35;20.67;;;14.00;;
20928;SDS011;21895;47.072;15.132;2022-07-23T04:48:02;18.10;;;13.62;;
20928;SDS011;21895;47.072;15.132;2022-07-23T04:50:29;17.67;;;13.85;;
20928;SDS011;21895;47.072;15.132;2022-07-23T04:52:56;19.02;;;14.23;;
20928;SDS011;21895;47.072;15.132;2022-07-23T04:55:22;17.95;;;13.45;;
20928;SDS011;21895;47.072;15.132;2022-07-23T04:57:49;15.15;;;12.93;;
20928;SDS011;21895;47.072;15.132;2022-07-23T05:00:16;20.27;;;13.50;;
20928;SDS011;21895;47.072;15.132;2022-07-23T05:02:42;17.85;;;12.13;;
20928;SDS011;21895;47.072;15.132;2022-07-23T05:05:09;15.68;;;12.73;;
20928;SDS011;21895;47.072;15.132;2022-07-23T05:07:35;16.23;;;12.73;;
20928;SDS011;21895;47.072;15.132;2022-07-23T05:10:02;18.45;;;13.15;;
20928;SDS011;21895;47.072;15.132;2022-07-23T05:12:29;18.48;;;12.35;;
20928;SDS011;21895;47.072;15.132;2022-07-23T05:14:56;22.27;;;12.73;;
20928;SDS011;21895;47.072;15.132;2022-07-23T05:17:22;18.35;;;12.40;;
20928;SDS011;21895;47.072;15.132;2022-07-23T05:19:49;15.90;;;12.50;;
20928;SDS011;21895;47.072;15.132;2022-07-23T05:22:15;16.08;;;12.00;;
20928;SDS011;21895;47.072;15.132;2022-07-23T05:24:42;14.80;;;11.02;;
20928;SDS011;21895;47.072;15.132;2022-07-23T05:27:09;14.50;;;11.55;;
20928;SDS011;21895;47.072;15.132;2022-07-23T05:29:35;13.85;;;11.45;;
20928;SDS011;21895;47.072;15.132;2022-07-23T05:32:02;17.00;;;11.57;;
20928;SDS011;21895;47.072;15.132;2022-07-23T05:34:28;22.65;;;11.65;;
20928;SDS011;21895;47.072;15.132;2022-07-23T05:36:55;20.70;;;11.93;;
20928;SDS011;21895;47.072;15.132;2022-07-23T05:39:21;13.00;;;11.32;;
20928;SDS011;21895;47.072;15.132;2022-07-23T05:41:48;18.65;;;11.43;;
20928;SDS011;21895;47.072;15.132;2022-07-23T05:44:15;16.30;;;11.82;;
20928;SDS011;21895;47.072;15.132;2022-07-23T05:46:41;18.42;;;11.35;;
20928;SDS011;21895;47.072;15.132;2022-07-23T05:49:08;16.65;;;11.30;;
20928;SDS011;21895;47.072;15.132;2022-07-23T05:51:35;22.25;;;11.90;;
20928;SDS011;21895;47.072;15.132;2022-07-23T05:54:01;12.70;;;10.90;;
20928;SDS011;21895;47.072;15.132;2022-07-23T05:56:28;12.40;;;10.70;;
20928;SDS011;21895;47.072;15.132;2022-07-23T05:58:54;16.58;;;10.90;;
20928;SDS011;21895;47.072;15.132;2022-07-23T06:01:21;16.73;;;11.77;;
20928;SDS011;21895;47.072;15.132;2022-07-23T06:03:47;15.65;;;10.75;;
20928;SDS011;21895;47.072;15.132;2022-07-23T06:06:14;18.10;;;11.02;;
20928;SDS011;21895;47.072;15.132;2022-07-23T06:08:41;14.27;;;10.88;;
20928;SDS011;21895;47.072;15.132;2022-07-23T06:11:07;18.27;;;10.80;;
20928;SDS011;21895;47.072;15.132;2022-07-23T06:13:34;15.48;;;11.30;;
20928;SDS011;21895;47.072;15.132;2022-07-23T06:16:01;15.48;;;10.88;;
20928;SDS011;21895;47.072;15.132;2022-07-23T06:18:27;17.30;;;10.65;;
20928;SDS011;21895;47.072;15.132;2022-07-23T06:20:54;20.92;;;10.73;;
20928;SDS011;21895;47.072;15.132;2022-07-23T06:23:26;17.30;;;11.10;;
20928;SDS011;21895;47.072;15.132;2022-07-23T06:25:52;12.05;;;10.82;;
20928;SDS011;21895;47.072;15.132;2022-07-23T06:28:19;11.50;;;10.20;;
20928;SDS011;21895;47.072;15.132;2022-07-23T06:30:45;13.62;;;10.95;;
20928;SDS011;21895;47.072;15.132;2022-07-23T06:33:12;16.02;;;11.15;;
20928;SDS011;21895;47.072;15.132;2022-07-23T06:35:39;15.10;;;11.00;;
20928;SDS011;21895;47.072;15.132;2022-07-23T06:38:06;13.82;;;11.18;;
20928;SDS011;21895;47.072;15.132;2022-07-23T06:40:33;16.65;;;10.50;;
20928;SDS011;21895;47.072;15.132;2022-07-23T06:43:00;20.17;;;10.60;;
20928;SDS011;21895;47.072;15.132;2022-07-23T06:45:26;15.30;;;10.32;;
20928;SDS011;21895;47.072;15.132;2022-07-23T06:47:53;14.05;;;10.82;;
20928;SDS011;21895;47.072;15.132;2022-07-23T06:50:20;15.80;;;10.27;;
20928;SDS011;21895;47.072;15.132;2022-07-23T06:52:46;14.70;;;10.38;;
20928;SDS011;21895;47.072;15.132;2022-07-23T06:55:13;13.02;;;9.88;;
20928;SDS011;21895;47.072;15.132;2022-07-23T06:57:40;12.20;;;9.40;;
20928;SDS011;21895;47.072;15.132;2022-07-23T07:00:07;11.20;;;9.32;;
20928;SDS011;21895;47.072;15.132;2022-07-23T07:02:35;22.08;;;9.68;;
20928;SDS011;21895;47.072;15.132;2022-07-23T07:05:02;11.10;;;9.02;;
20928;SDS011;21895;47.072;15.132;2022-07-23T07:07:32;10.45;;;9.20;;
20928;SDS011;21895;47.072;15.132;2022-07-23T07:09:59;11.12;;;9.93;;
20928;SDS011;21895;47.072;15.132;2022-07-23T07:12:26;13.40;;;9.40;;
20928;SDS011;21895;47.072;15.132;2022-07-23T07:14:53;10.52;;;9.43;;
20928;SDS011;21895;47.072;15.132;2022-07-23T07:17:19;14.35;;;9.52;;
20928;SDS011;21895;47.072;15.132;2022-07-23T07:19:46;10.63;;;9.15;;
20928;SDS011;21895;47.072;15.132;2022-07-23T07:22:13;10.77;;;9.07;;
20928;SDS011;21895;47.072;15.132;2022-07-23T07:24:39;11.80;;;9.75;;
20928;SDS011;21895;47.072;15.132;2022-07-23T07:27:06;18.42;;;10.85;;
20928;SDS011;21895;47.072;15.132;2022-07-23T07:29:32;13.98;;;11.05;;
20928;SDS011;21895;47.072;15.132;2022-07-23T07:31:59;19.27;;;11.55;;
20928;SDS011;21895;47.072;15.132;2022-07-23T07:34:25;16.10;;;11.20;;
20928;SDS011;21895;47.072;15.132;2022-07-23T07:36:52;21.60;;;11.10;;
20928;SDS011;21895;47.072;15.132;2022-07-23T07:39:19;21.23;;;11.85;;
20928;SDS011;21895;47.072;15.132;2022-07-23T07:41:45;17.15;;;11.48;;
20928;SDS011;21895;47.072;15.132;2022-07-23T07:44:12;14.87;;;11.25;;
20928;SDS011;21895;47.072;15.132;2022-07-23T07:46:38;13.70;;;11.18;;
20928;SDS011;21895;47.072;15.132;2022-07-23T07:49:05;21.00;;;11.57;;
20928;SDS011;21895;47.072;15.132;2022-07-23T07:51:32;15.60;;;11.15;;
20928;SDS011;21895;47.072;15.132;2022-07-23T07:53:59;13.93;;;10.55;;
20928;SDS011;21895;47.072;15.132;2022-07-23T07:56:27;12.23;;;10.48;;
20928;SDS011;21895;47.072;15.132;2022-07-23T07:58:53;15.38;;;10.50;;
20928;SDS011;21895;47.072;15.132;2022-07-23T08:01:20;17.83;;;10.77;;
20928;SDS011;21895;47.072;15.132;2022-07-23T08:03:47;15.43;;;11.00;;
20928;SDS011;21895;47.072;15.132;2022-07-23T08:06:14;22.70;;;10.13;;
20928;SDS011;21895;47.072;15.132;2022-07-23T08:08:40;14.00;;;10.02;;
20928;SDS011;21895;47.072;15.132;2022-07-23T08:11:07;14.77;;;10.63;;
20928;SDS011;21895;47.072;15.132;2022-07-23T08:13:33;12.98;;;10.27;;
20928;SDS011;21895;47.072;15.132;2022-07-23T08:16:00;20.62;;;9.23;;
20928;SDS011;21895;47.072;15.132;2022-07-23T08:18:27;13.98;;;9.70;;
20928;SDS011;21895;47.072;15.132;2022-07-23T08:20:54;20.23;;;10.05;;
20928;SDS011;21895;47.072;15.132;2022-07-23T08:23:20;16.58;;;10.45;;
20928;SDS011;21895;47.072;15.132;2022-07-23T08:25:53;16.58;;;10.30;;
20928;SDS011;21895;47.072;15.132;2022-07-23T08:28:22;21.98;;;13.30;;
20928;SDS011;21895;47.072;15.132;2022-07-23T08:30:49;25.15;;;10.68;;
20928;SDS011;21895;47.072;15.132;2022-07-23T08:33:16;18.35;;;10.15;;
20928;SDS011;21895;47.072;15.132;2022-07-23T08:35:59;12.73;;;10.35;;
20928;SDS011;21895;47.072;15.132;2022-07-23T08:38:28;16.12;;;10.45;;
20928;SDS011;21895;47.072;15.132;2022-07-23T08:40:54;14.98;;;10.30;;
20928;SDS011;21895;47.072;15.132;2022-07-23T08:43:25;12.85;;;9.88;;
20928;SDS011;21895;47.072;15.132;2022-07-23T08:45:57;18.83;;;9.95;;
20928;SDS011;21895;47.072;15.132;2022-07-23T08:48:29;12.80;;;9.90;;
20928;SDS011;21895;47.072;15.132;2022-07-23T08:51:01;13.18;;;9.32;;
20928;SDS011;21895;47.072;15.132;2022-07-23T08:53:30;11.60;;;9.48;;
20928;SDS011;21895;47.072;15.132;2022-07-23T08:56:02;10.23;;;9.00;;
20928;SDS011;21895;47.072;15.132;2022-07-23T08:58:30;11.57;;;9.63;;
20928;SDS011;21895;47.072;15.132;2022-07-23T09:00:57;10.18;;;9.07;;
20928;SDS011;21895;47.072;15.132;2022-07-23T09:03:25;10.15;;;9.15;;
20928;SDS011;21895;47.072;15.132;2022-07-23T09:05:55;11.68;;;9.23;;
20928;SDS011;21895;47.072;15.132;2022-07-23T09:08:42;13.15;;;9.38;;
20928;SDS011;21895;47.072;15.132;2022-07-23T09:11:11;13.32;;;9.52;;
20928;SDS011;21895;47.072;15.132;2022-07-23T09:13:51;14.80;;;9.90;;
20928;SDS011;21895;47.072;15.132;2022-07-23T09:16:23;10.88;;;9.75;;
20928;SDS011;21895;47.072;15.132;2022-07-23T09:18:58;13.52;;;10.25;;
20928;SDS011;21895;47.072;15.132;2022-07-23T09:21:34;11.52;;;10.10;;
20928;SDS011;21895;47.072;15.132;2022-07-23T09:24:12;11.25;;;9.93;;
20928;SDS011;21895;47.072;15.132;2022-07-23T09:26:44;11.95;;;9.80;;
20928;SDS011;21895;47.072;15.132;2022-07-23T09:29:22;10.95;;;9.85;;
20928;SDS011;21895;47.072;15.132;2022-07-23T09:31:54;15.02;;;10.23;;
20928;SDS011;21895;47.072;15.132;2022-07-23T09:34:34;14.23;;;10.68;;
20928;SDS011;21895;47.072;15.132;2022-07-23T09:37:12;12.45;;;10.23;;
20928;SDS011;21895;47.072;15.132;2022-07-23T09:39:44;16.37;;;11.12;;
20928;SDS011;21895;47.072;15.132;2022-07-23T09:42:17;16.77;;;10.80;;
20928;SDS011;21895;47.072;15.132;2022-07-23T09:44:52;10.35;;;8.85;;
20928;SDS011;21895;47.072;15.132;2022-07-23T09:47:22;6.97;;;6.28;;
20928;SDS011;21895;47.072;15.132;2022-07-23T09:50:04;6.90;;;6.20;;
20928;SDS011;21895;47.072;15.132;2022-07-23T09:52:45;6.10;;;5.50;;
20928;SDS011;21895;47.072;15.132;2022-07-23T09:55:14;5.53;;;4.80;;
20928;SDS011;21895;47.072;15.132;2022-07-23T09:57:44;8.40;;;5.28;;
20928;SDS011;21895;47.072;15.132;2022-07-23T10:00:15;6.25;;;5.65;;
20928;SDS011;21895;47.072;15.132;2022-07-23T10:02:42;7.57;;;5.95;;
20928;SDS011;21895;47.072;15.132;2022-07-23T10:05:13;8.48;;;6.80;;
20928;SDS011;21895;47.072;15.132;2022-07-23T10:07:41;11.63;;;7.35;;
20928;SDS011;21895;47.072;15.132;2022-07-23T10:10:09;8.02;;;7.22;;
20928;SDS011;21895;47.072;15.132;2022-07-23T10:12:38;9.57;;;5.55;;
20928;SDS011;21895;47.072;15.132;2022-07-23T10:15:15;9.25;;;4.60;;
20928;SDS011;21895;47.072;15.132;2022-07-23T10:17:43;7.40;;;5.40;;
20928;SDS011;21895;47.072;15.132;2022-07-23T10:20:10;7.25;;;4.93;;
20928;SDS011;21895;47.072;15.132;2022-07-23T10:22:37;6.95;;;4.95;;
20928;SDS011;21895;47.072;15.132;2022-07-23T10:25:36;9.00;;;4.80;;
20928;SDS011;21895;47.072;15.132;2022-07-23T10:34:31;6.28;;;5.68;;
20928;SDS011;21895;47.072;15.132;2022-07-23T10:38:57;6.72;;;6.03;;
20928;SDS011;21895;47.072;15.132;2022-07-23T10:42:58;7.12;;;6.43;;
20928;SDS011;21895;47.072;15.132;2022-07-23T10:45:32;9.93;;;6.18;;
20928;SDS011;21895;47.072;15.132;2022-07-23T10:54:49;8.15;;;6.45;;
20928;SDS011;21895;47.072;15.132;2022-07-23T10:58:06;7.80;;;6.65;;
20928;SDS011;21895;47.072;15.132;2022-07-23T11:00:33;6.85;;;6.15;;
20928;SDS011;21895;47.072;15.132;2022-07-23T11:03:05;7.32;;;6.62;;
20928;SDS011;21895;47.072;15.132;2022-07-23T11:05:57;7.32;;;6.12;;
20928;SDS011;21895;47.072;15.132;2022-07-23T11:08:24;7.47;;;6.53;;
20928;SDS011;21895;47.072;15.132;2022-07-23T11:15:10;6.60;;;6.00;;
20928;SDS011;21895;47.072;15.132;2022-07-23T11:23:13;7.25;;;6.53;;
20928;SDS011;21895;47.072;15.132;2022-07-23T11:25:39;7.90;;;6.47;;
20928;SDS011;21895;47.072;15.132;2022-07-23T11:30:52;10.85;;;6.62;;
20928;SDS011;21895;47.072;15.132;2022-07-23T11:33:19;7.57;;;6.85;;
20928;SDS011;21895;47.072;15.132;2022-07-23T11:35:59;7.15;;;6.40;;
20928;SDS011;21895;47.072;15.132;2022-07-23T11:38:30;8.25;;;7.40;;
20928;SDS011;21895;47.072;15.132;2022-07-23T11:40:58;7.35;;;6.65;;
20928;SDS011;21895;47.072;15.132;2022-07-23T11:43:24;8.48;;;6.37;;
20928;SDS011;21895;47.072;15.132;2022-07-23T11:45:53;8.02;;;7.22;;
20928;SDS011;21895;47.072;15.132;2022-07-23T11:48:25;8.65;;;6.50;;
20928;SDS011;21895;47.072;15.132;2022-07-23T11:50:56;7.30;;;6.60;;
20928;SDS011;21895;47.072;15.132;2022-07-23T11:53:27;9.75;;;6.22;;
20928;SDS011;21895;47.072;15.132;2022-07-23T11:56:05;12.00;;;6.53;;
20928;SDS011;21895;47.072;15.132;2022-07-23T11:58:37;7.57;;;6.87;;
20928;SDS011;21895;47.072;15.132;2022-07-23T12:01:05;7.70;;;7.00;;
20928;SDS011;21895;47.072;15.132;2022-07-23T12:03:47;7.70;;;6.97;;
20928;SDS011;21895;47.072;15.132;2022-07-23T12:06:17;8.20;;;7.40;;
20928;SDS011;21895;47.072;15.132;2022-07-23T12:08:43;8.25;;;6.75;;
20928;SDS011;21895;47.072;15.132;2022-07-23T12:11:11;9.52;;;6.72;;
20928;SDS011;21895;47.072;15.132;2022-07-23T12:13:38;7.60;;;6.90;;
20928;SDS011;21895;47.072;15.132;2022-07-23T12:16:05;10.00;;;7.40;;
20928;SDS011;21895;47.072;15.132;2022-07-23T12:18:33;8.85;;;7.07;;
20928;SDS011;21895;47.072;15.132;2022-07-23T12:21:03;9.55;;;7.12;;
20928;SDS011;21895;47.072;15.132;2022-07-23T12:23:32;7.15;;;6.55;;
20928;SDS011;21895;47.072;15.132;2022-07-23T12:26:00;10.70;;;7.40;;
20928;SDS011;21895;47.072;15.132;2022-07-23T12:28:29;7.90;;;7.20;;
20928;SDS011;21895;47.072;15.132;2022-07-23T12:31:03;8.18;;;7.20;;
20928;SDS011;21895;47.072;15.132;2022-07-23T12:33:31;8.20;;;7.07;;
20928;SDS011;21895;47.072;15.132;2022-07-23T12:36:06;8.65;;;7.85;;
20928;SDS011;21895;47.072;15.132;2022-07-23T12:38:47;9.10;;;8.20;;
20928;SDS011;21895;47.072;15.132;2022-07-23T12:41:15;8.07;;;7.30;;
20928;SDS011;21895;47.072;15.132;2022-07-23T12:43:43;8.80;;;8.00;;
20928;SDS011;21895;47.072;15.132;2022-07-23T12:46:12;10.15;;;8.15;;
20928;SDS011;21895;47.072;15.132;2022-07-23T12:48:50;10.63;;;7.30;;
20928;SDS011;21895;47.072;15.132;2022-07-23T12:51:28;10.38;;;7.70;;
20928;SDS011;21895;47.072;15.132;2022-07-23T12:54:07;8.60;;;7.80;;
20928;SDS011;21895;47.072;15.132;2022-07-23T12:56:36;8.70;;;7.90;;
20928;SDS011;21895;47.072;15.132;2022-07-23T12:59:14;8.73;;;7.78;;
20928;SDS011;21895;47.072;15.132;2022-07-23T13:01:45;10.10;;;7.80;;
20928;SDS011;21895;47.072;15.132;2022-07-23T13:04:24;7.95;;;7.25;;
20928;SDS011;21895;47.072;15.132;2022-07-23T13:06:56;8.18;;;7.37;;
20928;SDS011;21895;47.072;15.132;2022-07-23T13:09:30;9.60;;;7.10;;
20928;SDS011;21895;47.072;15.132;2022-07-23T13:12:04;8.18;;;7.43;;
20928;SDS011;21895;47.072;15.132;2022-07-23T13:14:31;14.93;;;7.85;;
20928;SDS011;21895;47.072;15.132;2022-07-23T13:16:58;11.85;;;7.82;;
20928;SDS011;21895;47.072;15.132;2022-07-23T13:19:25;12.50;;;7.85;;
20928;SDS011;21895;47.072;15.132;2022-07-23T13:21:52;8.93;;;7.70;;
20928;SDS011;21895;47.072;15.132;2022-07-23T13:24:20;10.23;;;7.97;;
20928;SDS011;21895;47.072;15.132;2022-07-23T13:26:47;8.77;;;7.87;;
20928;SDS011;21895;47.072;15.132;2022-07-23T13:29:16;8.23;;;7.18;;
20928;SDS011;21895;47.072;15.132;2022-07-23T13:31:45;8.65;;;7.43;;
20928;SDS011;21895;47.072;15.132;2022-07-23T13:34:13;7.82;;;7.12;;
20928;SDS011;21895;47.072;15.132;2022-07-23T13:36:40;12.57;;;7.37;;
20928;SDS011;21895;47.072;15.132;2022-07-23T13:39:08;8.07;;;7.28;;
20928;SDS011;21895;47.072;15.132;2022-07-23T13:41:37;9.48;;;8.48;;
20928;SDS011;21895;47.072;15.132;2022-07-23T13:44:04;8.18;;;7.37;;
20928;SDS011;21895;47.072;15.132;2022-07-23T13:46:32;7.30;;;6.70;;
20928;SDS011;21895;47.072;15.132;2022-07-23T13:49:00;8.05;;;6.93;;
20928;SDS011;21895;47.072;15.132;2022-07-23T13:51:28;8.25;;;7.40;;
20928;SDS011;21895;47.072;15.132;2022-07-23T13:53:54;7.80;;;7.05;;
20928;SDS011;21895;47.072;15.132;2022-07-23T13:56:24;10.52;;;7.07;;
20928;SDS011;21895;47.072;15.132;2022-07-23T13:58:51;8.32;;;7.32;;
20928;SDS011;21895;47.072;15.132;2022-07-23T14:01:19;9.80;;;7.05;;
20928;SDS011;21895;47.072;15.132;2022-07-23T14:03:46;7.90;;;7.12;;
20928;SDS011;21895;47.072;15.132;2022-07-23T14:06:12;9.68;;;7.32;;
20928;SDS011;21895;47.072;15.132;2022-07-23T14:08:42;9.30;;;7.72;;
20928;SDS011;21895;47.072;15.132;2022-07-23T14:11:10;8.60;;;7.45;;
20928;SDS011;21895;47.072;15.132;2022-07-23T14:13:38;8.23;;;7.40;;
20928;SDS011;21895;47.072;15.132;2022-07-23T14:16:04;11.88;;;7.78;;
20928;SDS011;21895;47.072;15.132;2022-07-23T14:18:31;7.37;;;6.68;;
20928;SDS011;21895;47.072;15.132;2022-07-23T14:20:59;7.68;;;6.97;;
20928;SDS011;21895;47.072;15.132;2022-07-23T14:23:25;7.03;;;6.32;;
20928;SDS011;21895;47.072;15.132;2022-07-23T14:25:52;7.62;;;6.85;;
20928;SDS011;21895;47.072;15.132;2022-07-23T14:28:19;7.15;;;6.45;;
20928;SDS011;21895;47.072;15.132;2022-07-23T14:30:46;7.28;;;6.68;;
20928;SDS011;21895;47.072;15.132;2022-07-23T14:33:12;8.73;;;6.80;;
20928;SDS011;21895;47.072;15.132;2022-07-23T14:35:40;10.32;;;7.32;;
20928;SDS011;21895;47.072;15.132;2022-07-23T14:38:07;9.63;;;7.35;;
20928;SDS011;21895;47.072;15.132;2022-07-23T14:40:34;8.18;;;7.22;;
20928;SDS011;21895;47.072;15.132;2022-07-23T14:43:00;8.50;;;7.70;;
20928;SDS011;21895;47.072;15.132;2022-07-23T14:45:27;8.52;;;7.57;;
20928;SDS011;21895;47.072;15.132;2022-07-23T14:47:55;8.45;;;7.65;;
20928;SDS011;21895;47.072;15.132;2022-07-23T14:50:23;14.05;;;8.25;;
20928;SDS011;21895;47.072;15.132;2022-07-23T14:52:50;9.35;;;8.18;;
20928;SDS011;21895;47.072;15.132;2022-07-23T14:55:17;9.82;;;7.75;;